sensor_id;sensor_type;location;lat;lon;timestamp;temperature;humidity
19924;DHT22;10124;53.068;18.224;2023-07-13T00:00:02;15.50;1.00
19924;DHT22;10124;53.068;18.224;2023-07-13T00:02:32;15.50;1.00
19924;DHT22;10124;53.068;18.224;2023-07-13T00:05:00;15.50;1.00
19924;DHT22;10124;53.068;18.224;2023-07-13T00:07:28;15.50;1.00
19924;DHT22;10124;53.068;18.224;2023-07-13T00:09:55;15.40;1.00
19924;DHT22;10124;53.068;18.224;2023-07-13T00:12:32;15.40;1.00
19924;DHT22;10124;53.068;18.224;2023-07-13T00:15:03;15.40;1.00
19924;DHT22;10124;53.068;18.224;2023-07-13T00:17:31;15.40;1.00
19924;DHT22;10124;53.068;18.224;2023-07-13T00:19:59;15.30;1.00
19924;DHT22;10124;53.068;18.224;2023-07-13T00:22:26;15.30;1.00
19924;DHT22;10124;53.068;18.224;2023-07-13T00:24:54;15.30;1.00
19924;DHT22;10124;53.068;18.224;2023-07-13T00:27:25;15.20;99.90
19924;DHT22;10124;53.068;18.224;2023-07-13T00:29:58;15.10;99.90
19924;DHT22;10124;53.068;18.224;2023-07-13T00:32:27;15.10;1.00
19924;DHT22;10124;53.068;18.224;2023-07-13T00:34:55;15.10;1.00
19924;DHT22;10124;53.068;18.224;2023-07-13T00:37:24;15.10;1.00
19924;DHT22;10124;53.068;18.224;2023-07-13T00:39:52;15.10;1.00
19924;DHT22;10124;53.068;18.224;2023-07-13T00:42:20;15.10;1.00
19924;DHT22;10124;53.068;18.224;2023-07-13T00:47:40;15.00;1.00
19924;DHT22;10124;53.068;18.224;2023-07-13T00:50:11;14.90;1.00
19924;DHT22;10124;53.068;18.224;2023-07-13T00:52:45;14.80;1.00
19924;DHT22;10124;53.068;18.224;2023-07-13T00:55:15;14.90;1.00
19924;DHT22;10124;53.068;18.224;2023-07-13T00:57:44;14.90;1.00
19924;DHT22;10124;53.068;18.224;2023-07-13T01:00:13;14.80;1.00
19924;DHT22;10124;53.068;18.224;2023-07-13T01:02:45;14.80;1.00
19924;DHT22;10124;53.068;18.224;2023-07-13T01:05:17;14.80;1.00
19924;DHT22;10124;53.068;18.224;2023-07-13T01:07:46;14.80;1.00
19924;DHT22;10124;53.068;18.224;2023-07-13T01:10:15;14.70;99.90
19924;DHT22;10124;53.068;18.224;2023-07-13T01:12:44;14.70;1.00
19924;DHT22;10124;53.068;18.224;2023-07-13T01:15:38;14.70;1.00
19924;DHT22;10124;53.068;18.224;2023-07-13T01:18:09;14.80;1.00
19924;DHT22;10124;53.068;18.224;2023-07-13T01:20:38;14.80;1.00
19924;DHT22;10124;53.068;18.224;2023-07-13T01:23:09;15.00;1.00
19924;DHT22;10124;53.068;18.224;2023-07-13T01:25:37;14.70;1.00
19924;DHT22;10124;53.068;18.224;2023-07-13T01:28:07;14.80;1.00
19924;DHT22;10124;53.068;18.224;2023-07-13T01:30:40;14.70;1.00
19924;DHT22;10124;53.068;18.224;2023-07-13T01:33:08;14.80;1.00
19924;DHT22;10124;53.068;18.224;2023-07-13T01:35:37;14.80;1.00
19924;DHT22;10124;53.068;18.224;2023-07-13T01:38:05;14.80;1.00
19924;DHT22;10124;53.068;18.224;2023-07-13T01:40:33;14.80;1.00
19924;DHT22;10124;53.068;18.224;2023-07-13T01:43:01;14.70;1.00
19924;DHT22;10124;53.068;18.224;2023-07-13T01:45:28;14.70;1.00
19924;DHT22;10124;53.068;18.224;2023-07-13T01:47:56;14.70;1.00
19924;DHT22;10124;53.068;18.224;2023-07-13T01:50:25;14.60;1.00
19924;DHT22;10124;53.068;18.224;2023-07-13T01:52:53;14.60;1.00
19924;DHT22;10124;53.068;18.224;2023-07-13T01:55:21;14.60;1.00
19924;DHT22;10124;53.068;18.224;2023-07-13T01:57:49;14.60;1.00
19924;DHT22;10124;53.068;18.224;2023-07-13T02:00:17;14.60;1.00
19924;DHT22;10124;53.068;18.224;2023-07-13T02:02:48;14.60;1.00
19924;DHT22;10124;53.068;18.224;2023-07-13T02:05:16;14.60;1.00
19924;DHT22;10124;53.068;18.224;2023-07-13T02:07:43;14.70;1.00
19924;DHT22;10124;53.068;18.224;2023-07-13T02:10:11;14.60;1.00
19924;DHT22;10124;53.068;18.224;2023-07-13T02:12:39;14.60;1.00
19924;DHT22;10124;53.068;18.224;2023-07-13T02:15:07;14.60;1.00
19924;DHT22;10124;53.068;18.224;2023-07-13T02:17:36;14.60;1.00
19924;DHT22;10124;53.068;18.224;2023-07-13T02:20:04;14.70;1.00
19924;DHT22;10124;53.068;18.224;2023-07-13T02:22:32;14.70;1.00
19924;DHT22;10124;53.068;18.224;2023-07-13T02:25:00;14.70;1.00
19924;DHT22;10124;53.068;18.224;2023-07-13T02:27:27;14.70;1.00
19924;DHT22;10124;53.068;18.224;2023-07-13T02:29:55;14.80;1.00
19924;DHT22;10124;53.068;18.224;2023-07-13T02:32:22;14.80;1.00
19924;DHT22;10124;53.068;18.224;2023-07-13T02:34:52;14.90;1.00
19924;DHT22;10124;53.068;18.224;2023-07-13T02:37:20;14.90;1.00
19924;DHT22;10124;53.068;18.224;2023-07-13T02:39:48;16.00;1.00
19924;DHT22;10124;53.068;18.224;2023-07-13T02:42:16;15.00;1.00
19924;DHT22;10124;53.068;18.224;2023-07-13T02:44:44;15.00;1.00
19924;DHT22;10124;53.068;18.224;2023-07-13T02:47:12;14.90;1.00
19924;DHT22;10124;53.068;18.224;2023-07-13T02:49:40;15.60;1.00
19924;DHT22;10124;53.068;18.224;2023-07-13T02:52:07;15.00;1.00
19924;DHT22;10124;53.068;18.224;2023-07-13T02:54:35;14.90;1.00
19924;DHT22;10124;53.068;18.224;2023-07-13T02:57:02;15.00;1.00
19924;DHT22;10124;53.068;18.224;2023-07-13T02:59:30;15.00;1.00
19924;DHT22;10124;53.068;18.224;2023-07-13T03:01:58;14.90;1.00
19924;DHT22;10124;53.068;18.224;2023-07-13T03:04:25;14.90;1.00
19924;DHT22;10124;53.068;18.224;2023-07-13T03:06:53;14.90;1.00
19924;DHT22;10124;53.068;18.224;2023-07-13T03:09:28;14.90;1.00
19924;DHT22;10124;53.068;18.224;2023-07-13T03:11:56;14.90;1.00
19924;DHT22;10124;53.068;18.224;2023-07-13T03:14:28;14.80;1.00
19924;DHT22;10124;53.068;18.224;2023-07-13T03:16:58;14.90;1.00
19924;DHT22;10124;53.068;18.224;2023-07-13T03:19:29;14.80;1.00
19924;DHT22;10124;53.068;18.224;2023-07-13T03:21:57;14.90;1.00
19924;DHT22;10124;53.068;18.224;2023-07-13T03:24:24;14.80;1.00
19924;DHT22;10124;53.068;18.224;2023-07-13T03:26:54;14.80;1.00
19924;DHT22;10124;53.068;18.224;2023-07-13T03:29:21;14.80;1.00
19924;DHT22;10124;53.068;18.224;2023-07-13T03:31:50;14.80;1.00
19924;DHT22;10124;53.068;18.224;2023-07-13T03:34:18;14.80;1.00
19924;DHT22;10124;53.068;18.224;2023-07-13T03:36:46;14.90;1.00
19924;DHT22;10124;53.068;18.224;2023-07-13T03:39:13;14.90;1.00
19924;DHT22;10124;53.068;18.224;2023-07-13T03:41:47;15.00;1.00
19924;DHT22;10124;53.068;18.224;2023-07-13T03:44:16;15.10;1.00
19924;DHT22;10124;53.068;18.224;2023-07-13T03:46:45;15.10;1.00
19924;DHT22;10124;53.068;18.224;2023-07-13T03:49:14;15.20;1.00
19924;DHT22;10124;53.068;18.224;2023-07-13T03:51:41;15.30;1.00
19924;DHT22;10124;53.068;18.224;2023-07-13T03:54:09;15.30;1.00
19924;DHT22;10124;53.068;18.224;2023-07-13T03:56:37;15.70;1.00
19924;DHT22;10124;53.068;18.224;2023-07-13T03:59:07;15.40;1.00
19924;DHT22;10124;53.068;18.224;2023-07-13T04:01:34;15.40;1.00
19924;DHT22;10124;53.068;18.224;2023-07-13T04:04:02;15.50;1.00
19924;DHT22;10124;53.068;18.224;2023-07-13T04:06:32;15.60;1.00
19924;DHT22;10124;53.068;18.224;2023-07-13T04:09:01;15.60;1.00
19924;DHT22;10124;53.068;18.224;2023-07-13T04:11:30;15.60;1.00
19924;DHT22;10124;53.068;18.224;2023-07-13T04:14:00;15.80;1.00
19924;DHT22;10124;53.068;18.224;2023-07-13T04:16:27;15.70;1.00
19924;DHT22;10124;53.068;18.224;2023-07-13T04:18:56;15.80;1.00
19924;DHT22;10124;53.068;18.224;2023-07-13T04:21:29;15.70;1.00
19924;DHT22;10124;53.068;18.224;2023-07-13T04:23:59;15.80;1.00
19924;DHT22;10124;53.068;18.224;2023-07-13T04:26:27;15.80;1.00
19924;DHT22;10124;53.068;18.224;2023-07-13T04:28:55;15.70;1.00
19924;DHT22;10124;53.068;18.224;2023-07-13T04:31:23;15.70;1.00
19924;DHT22;10124;53.068;18.224;2023-07-13T04:33:51;15.60;1.00
19924;DHT22;10124;53.068;18.224;2023-07-13T04:36:19;15.60;1.00
19924;DHT22;10124;53.068;18.224;2023-07-13T04:38:46;15.60;1.00
19924;DHT22;10124;53.068;18.224;2023-07-13T04:41:14;15.70;1.00
19924;DHT22;10124;53.068;18.224;2023-07-13T04:43:42;16.30;1.00
19924;DHT22;10124;53.068;18.224;2023-07-13T04:46:12;15.90;1.00
19924;DHT22;10124;53.068;18.224;2023-07-13T04:48:40;15.90;1.00
19924;DHT22;10124;53.068;18.224;2023-07-13T04:51:08;16.00;1.00
19924;DHT22;10124;53.068;18.224;2023-07-13T04:53:36;16.20;1.00
19924;DHT22;10124;53.068;18.224;2023-07-13T04:56:04;16.30;1.00
19924;DHT22;10124;53.068;18.224;2023-07-13T04:58:33;16.50;1.00
19924;DHT22;10124;53.068;18.224;2023-07-13T05:01:03;16.60;1.00
19924;DHT22;10124;53.068;18.224;2023-07-13T05:03:31;16.70;1.00
19924;DHT22;10124;53.068;18.224;2023-07-13T05:06:05;16.70;1.00
19924;DHT22;10124;53.068;18.224;2023-07-13T05:08:33;16.90;1.00
19924;DHT22;10124;53.068;18.224;2023-07-13T05:11:02;16.90;1.00
19924;DHT22;10124;53.068;18.224;2023-07-13T05:13:30;17.00;1.00
19924;DHT22;10124;53.068;18.224;2023-07-13T05:16:01;17.10;1.00
19924;DHT22;10124;53.068;18.224;2023-07-13T05:18:30;17.20;1.00
19924;DHT22;10124;53.068;18.224;2023-07-13T05:23:26;17.30;1.00
19924;DHT22;10124;53.068;18.224;2023-07-13T05:25:54;17.30;1.00
19924;DHT22;10124;53.068;18.224;2023-07-13T05:28:22;17.30;1.00
19924;DHT22;10124;53.068;18.224;2023-07-13T05:30:50;17.40;1.00
19924;DHT22;10124;53.068;18.224;2023-07-13T05:33:18;17.40;1.00
19924;DHT22;10124;53.068;18.224;2023-07-13T05:35:46;17.40;1.00
19924;DHT22;10124;53.068;18.224;2023-07-13T05:38:13;17.50;1.00
19924;DHT22;10124;53.068;18.224;2023-07-13T05:40:45;17.70;1.00
19924;DHT22;10124;53.068;18.224;2023-07-13T05:43:13;17.90;1.00
19924;DHT22;10124;53.068;18.224;2023-07-13T05:45:41;18.10;1.00
19924;DHT22;10124;53.068;18.224;2023-07-13T05:48:09;18.30;1.00
19924;DHT22;10124;53.068;18.224;2023-07-13T05:50:36;18.40;1.00
19924;DHT22;10124;53.068;18.224;2023-07-13T05:53:04;18.60;1.00
19924;DHT22;10124;53.068;18.224;2023-07-13T05:55:32;18.60;99.90
19924;DHT22;10124;53.068;18.224;2023-07-13T05:58:00;18.50;99.90
19924;DHT22;10124;53.068;18.224;2023-07-13T06:00:29;18.50;99.90
19924;DHT22;10124;53.068;18.224;2023-07-13T06:02:56;18.70;99.90
19924;DHT22;10124;53.068;18.224;2023-07-13T06:05:26;19.00;1.00
19924;DHT22;10124;53.068;18.224;2023-07-13T06:07:56;19.20;99.90
19924;DHT22;10124;53.068;18.224;2023-07-13T06:10:23;19.10;99.90
19924;DHT22;10124;53.068;18.224;2023-07-13T06:12:51;19.30;99.90
19924;DHT22;10124;53.068;18.224;2023-07-13T06:15:19;19.50;99.90
19924;DHT22;10124;53.068;18.224;2023-07-13T06:17:46;19.70;99.90
19924;DHT22;10124;53.068;18.224;2023-07-13T06:20:14;19.90;99.90
19924;DHT22;10124;53.068;18.224;2023-07-13T06:22:44;20.10;92.70
19924;DHT22;10124;53.068;18.224;2023-07-13T06:25:12;20.30;1.00
19924;DHT22;10124;53.068;18.224;2023-07-13T06:27:39;20.50;99.90
19924;DHT22;10124;53.068;18.224;2023-07-13T06:30:07;20.60;99.90
19924;DHT22;10124;53.068;18.224;2023-07-13T06:32:35;20.70;1.00
19924;DHT22;10124;53.068;18.224;2023-07-13T06:35:09;20.90;1.00
19924;DHT22;10124;53.068;18.224;2023-07-13T06:37:39;21.00;99.90
19924;DHT22;10124;53.068;18.224;2023-07-13T06:40:08;21.20;1.00
19924;DHT22;10124;53.068;18.224;2023-07-13T06:42:35;21.50;1.00
19924;DHT22;10124;53.068;18.224;2023-07-13T06:45:03;21.30;99.90
19924;DHT22;10124;53.068;18.224;2023-07-13T06:47:32;21.20;99.90
19924;DHT22;10124;53.068;18.224;2023-07-13T06:50:00;21.20;99.90
19924;DHT22;10124;53.068;18.224;2023-07-13T06:52:28;21.20;99.90
19924;DHT22;10124;53.068;18.224;2023-07-13T06:54:56;21.10;99.90
19924;DHT22;10124;53.068;18.224;2023-07-13T06:57:23;21.00;99.90
19924;DHT22;10124;53.068;18.224;2023-07-13T06:59:51;20.90;81.60
19924;DHT22;10124;53.068;18.224;2023-07-13T07:02:19;21.00;99.90
19924;DHT22;10124;53.068;18.224;2023-07-13T07:04:46;21.00;99.90
19924;DHT22;10124;53.068;18.224;2023-07-13T07:07:14;21.00;99.90
19924;DHT22;10124;53.068;18.224;2023-07-13T07:09:42;21.10;99.90
19924;DHT22;10124;53.068;18.224;2023-07-13T07:12:09;21.10;99.90
19924;DHT22;10124;53.068;18.224;2023-07-13T07:14:40;21.10;99.90
19924;DHT22;10124;53.068;18.224;2023-07-13T07:17:09;21.10;99.90
19924;DHT22;10124;53.068;18.224;2023-07-13T07:19:38;21.50;99.90
19924;DHT22;10124;53.068;18.224;2023-07-13T07:22:05;22.10;86.90
19924;DHT22;10124;53.068;18.224;2023-07-13T07:24:33;22.40;1.00
19924;DHT22;10124;53.068;18.224;2023-07-13T07:27:01;22.40;1.00
19924;DHT22;10124;53.068;18.224;2023-07-13T07:29:32;22.70;1.00
19924;DHT22;10124;53.068;18.224;2023-07-13T07:32:02;22.80;1.00
19924;DHT22;10124;53.068;18.224;2023-07-13T07:34:50;23.00;1.00
19924;DHT22;10124;53.068;18.224;2023-07-13T07:37:18;23.10;1.00
19924;DHT22;10124;53.068;18.224;2023-07-13T07:39:48;23.60;1.00
19924;DHT22;10124;53.068;18.224;2023-07-13T07:42:36;23.50;1.00
19924;DHT22;10124;53.068;18.224;2023-07-13T07:45:04;23.40;1.00
19924;DHT22;10124;53.068;18.224;2023-07-13T07:47:31;23.20;1.00
19924;DHT22;10124;53.068;18.224;2023-07-13T07:49:59;23.50;1.00
19924;DHT22;10124;53.068;18.224;2023-07-13T07:52:27;23.40;1.00
19924;DHT22;10124;53.068;18.224;2023-07-13T07:54:55;23.20;1.00
19924;DHT22;10124;53.068;18.224;2023-07-13T07:57:42;23.10;1.00
19924;DHT22;10124;53.068;18.224;2023-07-13T08:00:14;22.80;1.00
19924;DHT22;10124;53.068;18.224;2023-07-13T08:02:46;22.90;1.00
19924;DHT22;10124;53.068;18.224;2023-07-13T08:05:18;23.00;1.00
19924;DHT22;10124;53.068;18.224;2023-07-13T08:07:49;23.20;1.00
19924;DHT22;10124;53.068;18.224;2023-07-13T08:10:16;22.90;1.00
19924;DHT22;10124;53.068;18.224;2023-07-13T08:12:45;22.80;1.00
19924;DHT22;10124;53.068;18.224;2023-07-13T08:15:32;22.60;1.00
19924;DHT22;10124;53.068;18.224;2023-07-13T08:18:00;22.30;1.00
19924;DHT22;10124;53.068;18.224;2023-07-13T08:20:27;22.20;1.00
19924;DHT22;10124;53.068;18.224;2023-07-13T08:22:55;22.10;1.00
19924;DHT22;10124;53.068;18.224;2023-07-13T08:25:23;22.30;1.00
19924;DHT22;10124;53.068;18.224;2023-07-13T08:27:51;22.30;1.00
19924;DHT22;10124;53.068;18.224;2023-07-13T08:30:18;22.60;1.00
19924;DHT22;10124;53.068;18.224;2023-07-13T08:32:46;23.00;1.00
19924;DHT22;10124;53.068;18.224;2023-07-13T08:35:13;23.20;1.00
19924;DHT22;10124;53.068;18.224;2023-07-13T08:37:41;24.00;1.00
19924;DHT22;10124;53.068;18.224;2023-07-13T08:40:10;24.70;1.00
19924;DHT22;10124;53.068;18.224;2023-07-13T08:42:55;25.50;1.00
